sensor_id;sensor_type;location;lat;lon;timestamp;pressure;altitude;pressure_sealevel;temperature;humidity
63946;BME280;50122;56.330;43.838;2023-08-17T00:02:16;101197.19;;;17.60;100.00
63946;BME280;50122;56.330;43.838;2023-08-17T00:04:42;101196.34;;;17.60;100.00
63946;BME280;50122;56.330;43.838;2023-08-17T00:07:09;101201.97;;;17.55;100.00
63946;BME280;50122;56.330;43.838;2023-08-17T00:09:36;101206.44;;;17.54;100.00
63946;BME280;50122;56.330;43.838;2023-08-17T00:12:03;101197.66;;;17.52;100.00
63946;BME280;50122;56.330;43.838;2023-08-17T00:14:31;101199.53;;;17.50;100.00
63946;BME280;50122;56.330;43.838;2023-08-17T00:16:58;101202.31;;;17.49;100.00
63946;BME280;50122;56.330;43.838;2023-08-17T00:19:25;101212.31;;;17.45;100.00
63946;BME280;50122;56.330;43.838;2023-08-17T00:21:52;101214.13;;;17.45;100.00
63946;BME280;50122;56.330;43.838;2023-08-17T00:24:19;101225.06;;;17.40;100.00
63946;BME280;50122;56.330;43.838;2023-08-17T00:26:47;101217.16;;;17.39;100.00
63946;BME280;50122;56.330;43.838;2023-08-17T00:29:14;101219.06;;;17.36;100.00
63946;BME280;50122;56.330;43.838;2023-08-17T00:31:41;101225.44;;;17.34;100.00
63946;BME280;50122;56.330;43.838;2023-08-17T00:34:10;101218.53;;;17.30;100.00
63946;BME280;50122;56.330;43.838;2023-08-17T00:36:37;101223.97;;;17.28;100.00
63946;BME280;50122;56.330;43.838;2023-08-17T00:39:04;101222.34;;;17.26;100.00
63946;BME280;50122;56.330;43.838;2023-08-17T00:41:30;101217.97;;;17.25;100.00
63946;BME280;50122;56.330;43.838;2023-08-17T00:43:57;101222.50;;;17.23;100.00
63946;BME280;50122;56.330;43.838;2023-08-17T00:46:24;101220.88;;;17.20;100.00
63946;BME280;50122;56.330;43.838;2023-08-17T00:48:51;101223.63;;;17.18;100.00
63946;BME280;50122;56.330;43.838;2023-08-17T00:51:18;101224.59;;;17.17;100.00
63946;BME280;50122;56.330;43.838;2023-08-17T00:53:47;101230.88;;;17.16;100.00
63946;BME280;50122;56.330;43.838;2023-08-17T00:56:13;101223.81;;;17.15;100.00
63946;BME280;50122;56.330;43.838;2023-08-17T00:58:42;101231.91;;;17.14;100.00
63946;BME280;50122;56.330;43.838;2023-08-17T01:01:09;101232.94;;;17.11;100.00
63946;BME280;50122;56.330;43.838;2023-08-17T01:03:35;101228.78;;;17.06;100.00
63946;BME280;50122;56.330;43.838;2023-08-17T01:06:03;101236.66;;;17.09;100.00
63946;BME280;50122;56.330;43.838;2023-08-17T01:08:30;101234.06;;;17.07;100.00
63946;BME280;50122;56.330;43.838;2023-08-17T01:11:07;101237.59;;;17.08;100.00
63946;BME280;50122;56.330;43.838;2023-08-17T01:13:44;101234.13;;;17.06;100.00
63946;BME280;50122;56.330;43.838;2023-08-17T01:16:16;101225.28;;;17.05;100.00
63946;BME280;50122;56.330;43.838;2023-08-17T01:18:48;101233.28;;;17.05;100.00
63946;BME280;50122;56.330;43.838;2023-08-17T01:21:17;101231.56;;;17.04;100.00
63946;BME280;50122;56.330;43.838;2023-08-17T01:23:46;101222.97;;;16.99;100.00
63946;BME280;50122;56.330;43.838;2023-08-17T01:26:13;101229.16;;;16.99;100.00
63946;BME280;50122;56.330;43.838;2023-08-17T01:28:45;101230.09;;;16.98;100.00
63946;BME280;50122;56.330;43.838;2023-08-17T01:31:25;101236.41;;;16.97;100.00
63946;BME280;50122;56.330;43.838;2023-08-17T01:34:03;101231.16;;;16.96;100.00
63946;BME280;50122;56.330;43.838;2023-08-17T01:36:42;101226.91;;;16.92;100.00
63946;BME280;50122;56.330;43.838;2023-08-17T01:39:12;101227.78;;;16.92;100.00
63946;BME280;50122;56.330;43.838;2023-08-17T01:41:41;101225.00;;;16.94;100.00
63946;BME280;50122;56.330;43.838;2023-08-17T01:44:08;101223.97;;;16.96;100.00
63946;BME280;50122;56.330;43.838;2023-08-17T01:46:35;101225.19;;;16.91;100.00
63946;BME280;50122;56.330;43.838;2023-08-17T01:49:02;101229.31;;;16.96;100.00
63946;BME280;50122;56.330;43.838;2023-08-17T01:51:28;101227.50;;;16.97;100.00
63946;BME280;50122;56.330;43.838;2023-08-17T01:53:56;101238.19;;;16.97;100.00
63946;BME280;50122;56.330;43.838;2023-08-17T01:56:23;101237.25;;;16.98;100.00
63946;BME280;50122;56.330;43.838;2023-08-17T01:58:49;101245.19;;;16.99;100.00
63946;BME280;50122;56.330;43.838;2023-08-17T02:01:16;101258.63;;;16.98;100.00
63946;BME280;50122;56.330;43.838;2023-08-17T02:03:43;101263.00;;;16.99;100.00
63946;BME280;50122;56.330;43.838;2023-08-17T02:06:09;101261.28;;;16.98;100.00
63946;BME280;50122;56.330;43.838;2023-08-17T02:08:38;101267.38;;;17.00;100.00
63946;BME280;50122;56.330;43.838;2023-08-17T02:11:05;101264.72;;;17.00;100.00
63946;BME280;50122;56.330;43.838;2023-08-17T02:13:31;101266.44;;;17.01;100.00
63946;BME280;50122;56.330;43.838;2023-08-17T02:15:58;101270.84;;;17.02;100.00
63946;BME280;50122;56.330;43.838;2023-08-17T02:18:25;101269.91;;;17.03;100.00
63946;BME280;50122;56.330;43.838;2023-08-17T02:20:51;101269.13;;;17.01;100.00
63946;BME280;50122;56.330;43.838;2023-08-17T02:23:19;101265.50;;;17.02;100.00
63946;BME280;50122;56.330;43.838;2023-08-17T02:25:45;101261.81;;;17.05;100.00
63946;BME280;50122;56.330;43.838;2023-08-17T02:28:12;101255.50;;;17.06;100.00
63946;BME280;50122;56.330;43.838;2023-08-17T02:30:39;101258.09;;;17.07;100.00
63946;BME280;50122;56.330;43.838;2023-08-17T02:33:07;101253.63;;;17.08;100.00
63946;BME280;50122;56.330;43.838;2023-08-17T02:35:34;101253.47;;;17.11;100.00
63946;BME280;50122;56.330;43.838;2023-08-17T02:38:01;101265.59;;;17.16;100.00
63946;BME280;50122;56.330;43.838;2023-08-17T02:40:28;101266.19;;;17.22;100.00
63946;BME280;50122;56.330;43.838;2023-08-17T02:42:54;101264.31;;;17.24;100.00
63946;BME280;50122;56.330;43.838;2023-08-17T02:45:23;101264.13;;;17.27;100.00
63946;BME280;50122;56.330;43.838;2023-08-17T02:47:49;101271.88;;;17.31;100.00
63946;BME280;50122;56.330;43.838;2023-08-17T02:50:16;101273.53;;;17.34;100.00
63946;BME280;50122;56.330;43.838;2023-08-17T02:52:44;101276.91;;;17.38;100.00
63946;BME280;50122;56.330;43.838;2023-08-17T02:55:11;101279.22;;;17.44;100.00
63946;BME280;50122;56.330;43.838;2023-08-17T02:57:38;101285.75;;;17.54;100.00
63946;BME280;50122;56.330;43.838;2023-08-17T03:00:08;101277.72;;;17.70;100.00
63946;BME280;50122;56.330;43.838;2023-08-17T03:02:35;101280.16;;;17.89;100.00
63946;BME280;50122;56.330;43.838;2023-08-17T03:05:02;101270.41;;;18.04;100.00
63946;BME280;50122;56.330;43.838;2023-08-17T03:07:29;101270.53;;;18.17;100.00
63946;BME280;50122;56.330;43.838;2023-08-17T03:09:56;101275.44;;;18.25;100.00
63946;BME280;50122;56.330;43.838;2023-08-17T03:12:22;101273.91;;;18.35;100.00
63946;BME280;50122;56.330;43.838;2023-08-17T03:14:50;101264.56;;;18.42;100.00
63946;BME280;50122;56.330;43.838;2023-08-17T03:17:16;101271.56;;;18.45;100.00
63946;BME280;50122;56.330;43.838;2023-08-17T03:19:43;101277.38;;;18.51;100.00
63946;BME280;50122;56.330;43.838;2023-08-17T03:22:11;101277.06;;;18.56;100.00
63946;BME280;50122;56.330;43.838;2023-08-17T03:24:37;101272.22;;;18.63;99.66
63946;BME280;50122;56.330;43.838;2023-08-17T03:27:04;101287.13;;;18.67;99.31
63946;BME280;50122;56.330;43.838;2023-08-17T03:29:31;101288.69;;;18.71;98.97
63946;BME280;50122;56.330;43.838;2023-08-17T03:31:58;101288.09;;;18.80;99.17
63946;BME280;50122;56.330;43.838;2023-08-17T03:34:25;101300.75;;;18.92;98.96
63946;BME280;50122;56.330;43.838;2023-08-17T03:36:53;101296.72;;;19.00;98.53
63946;BME280;50122;56.330;43.838;2023-08-17T03:39:20;101292.72;;;19.07;98.20
63946;BME280;50122;56.330;43.838;2023-08-17T03:41:46;101292.84;;;19.33;97.62
63946;BME280;50122;56.330;43.838;2023-08-17T03:44:13;101290.25;;;19.46;96.43
63946;BME280;50122;56.330;43.838;2023-08-17T03:46:41;101289.63;;;19.55;95.25
